sensor_id;sensor_type;location;lat;lon;timestamp;P1;durP1;ratioP1;P2;durP2;ratioP2
81725;SDS011;71135;16.738;-14.648;2023-11-22T00:01:55;15.68;;;8.32;;
81725;SDS011;71135;16.738;-14.648;2023-11-22T00:04:24;15.35;;;8.25;;
81725;SDS011;71135;16.738;-14.648;2023-11-22T00:06:53;13.30;;;8.27;;
81725;SDS011;71135;16.738;-14.648;2023-11-22T00:09:22;14.93;;;8.63;;
81725;SDS011;71135;16.738;-14.648;2023-11-22T00:11:51;12.90;;;8.52;;
81725;SDS011;71135;16.738;-14.648;2023-11-22T00:14:20;13.50;;;7.75;;
81725;SDS011;71135;16.738;-14.648;2023-11-22T00:16:52;13.88;;;8.10;;
81725;SDS011;71135;16.738;-14.648;2023-11-22T00:19:21;15.88;;;7.97;;
81725;SDS011;71135;16.738;-14.648;2023-11-22T00:21:50;15.98;;;8.52;;
81725;SDS011;71135;16.738;-14.648;2023-11-22T00:24:19;14.40;;;8.93;;
81725;SDS011;71135;16.738;-14.648;2023-11-22T00:26:48;14.40;;;7.70;;
81725;SDS011;71135;16.738;-14.648;2023-11-22T00:29:17;15.25;;;8.32;;
81725;SDS011;71135;16.738;-14.648;2023-11-22T00:31:47;15.05;;;8.48;;
81725;SDS011;71135;16.738;-14.648;2023-11-22T00:34:18;15.40;;;8.00;;
81725;SDS011;71135;16.738;-14.648;2023-11-22T00:36:49;11.80;;;7.13;;
81725;SDS011;71135;16.738;-14.648;2023-11-22T00:39:18;14.80;;;7.55;;
81725;SDS011;71135;16.738;-14.648;2023-11-22T00:41:48;15.35;;;7.50;;
81725;SDS011;71135;16.738;-14.648;2023-11-22T00:44:17;12.93;;;7.57;;
81725;SDS011;71135;16.738;-14.648;2023-11-22T00:46:46;14.15;;;7.22;;
81725;SDS011;71135;16.738;-14.648;2023-11-22T00:49:22;12.05;;;7.03;;
81725;SDS011;71135;16.738;-14.648;2023-11-22T00:51:52;14.80;;;7.65;;
81725;SDS011;71135;16.738;-14.648;2023-11-22T00:54:21;15.18;;;6.75;;
81725;SDS011;71135;16.738;-14.648;2023-11-22T00:56:50;14.25;;;7.43;;
81725;SDS011;71135;16.738;-14.648;2023-11-22T00:59:20;14.90;;;7.65;;
81725;SDS011;71135;16.738;-14.648;2023-11-22T01:01:49;11.85;;;6.80;;
81725;SDS011;71135;16.738;-14.648;2023-11-22T01:04:18;13.75;;;7.15;;
81725;SDS011;71135;16.738;-14.648;2023-11-22T01:06:49;13.85;;;7.35;;
81725;SDS011;71135;16.738;-14.648;2023-11-22T01:09:18;13.05;;;6.78;;
81725;SDS011;71135;16.738;-14.648;2023-11-22T01:11:48;12.32;;;7.32;;
81725;SDS011;71135;16.738;-14.648;2023-11-22T01:14:17;12.93;;;7.57;;
81725;SDS011;71135;16.738;-14.648;2023-11-22T01:16:47;11.90;;;6.95;;
81725;SDS011;71135;16.738;-14.648;2023-11-22T01:19:16;15.88;;;7.53;;
81725;SDS011;71135;16.738;-14.648;2023-11-22T01:21:45;14.82;;;7.47;;
81725;SDS011;71135;16.738;-14.648;2023-11-22T01:24:17;12.75;;;7.38;;
81725;SDS011;71135;16.738;-14.648;2023-11-22T01:26:46;11.93;;;7.28;;
81725;SDS011;71135;16.738;-14.648;2023-11-22T01:29:15;14.93;;;7.28;;
81725;SDS011;71135;16.738;-14.648;2023-11-22T01:31:44;12.75;;;7.65;;
81725;SDS011;71135;16.738;-14.648;2023-11-22T01:34:13;12.82;;;6.55;;
81725;SDS011;71135;16.738;-14.648;2023-11-22T01:36:43;12.70;;;6.95;;
81725;SDS011;71135;16.738;-14.648;2023-11-22T01:39:12;13.82;;;7.93;;
81725;SDS011;71135;16.738;-14.648;2023-11-22T01:41:46;11.77;;;6.65;;
81725;SDS011;71135;16.738;-14.648;2023-11-22T01:44:15;12.45;;;7.32;;
81725;SDS011;71135;16.738;-14.648;2023-11-22T01:46:45;14.48;;;7.75;;
81725;SDS011;71135;16.738;-14.648;2023-11-22T01:52:10;14.32;;;8.13;;
81725;SDS011;71135;16.738;-14.648;2023-11-22T01:54:39;13.15;;;7.07;;
81725;SDS011;71135;16.738;-14.648;2023-11-22T01:57:12;14.02;;;7.57;;
81725;SDS011;71135;16.738;-14.648;2023-11-22T01:59:43;13.73;;;7.50;;
81725;SDS011;71135;16.738;-14.648;2023-11-22T02:02:13;14.32;;;8.00;;
81725;SDS011;71135;16.738;-14.648;2023-11-22T02:04:42;13.07;;;7.03;;
81725;SDS011;71135;16.738;-14.648;2023-11-22T02:07:11;13.48;;;7.43;;
81725;SDS011;71135;16.738;-14.648;2023-11-22T02:09:40;12.43;;;7.28;;
81725;SDS011;71135;16.738;-14.648;2023-11-22T02:12:15;14.82;;;7.70;;
81725;SDS011;71135;16.738;-14.648;2023-11-22T02:14:44;13.35;;;7.55;;
81725;SDS011;71135;16.738;-14.648;2023-11-22T02:17:14;14.45;;;7.45;;
81725;SDS011;71135;16.738;-14.648;2023-11-22T02:19:43;14.55;;;7.28;;
81725;SDS011;71135;16.738;-14.648;2023-11-22T02:22:12;15.90;;;7.55;;
81725;SDS011;71135;16.738;-14.648;2023-11-22T02:24:45;12.68;;;7.35;;
81725;SDS011;71135;16.738;-14.648;2023-11-22T02:27:14;13.23;;;6.88;;
81725;SDS011;71135;16.738;-14.648;2023-11-22T02:29:44;15.32;;;8.13;;
81725;SDS011;71135;16.738;-14.648;2023-11-22T02:32:14;13.38;;;7.05;;
81725;SDS011;71135;16.738;-14.648;2023-11-22T02:34:44;15.43;;;7.32;;
81725;SDS011;71135;16.738;-14.648;2023-11-22T02:37:13;15.88;;;7.20;;
81725;SDS011;71135;16.738;-14.648;2023-11-22T02:39:48;11.85;;;6.25;;
81725;SDS011;71135;16.738;-14.648;2023-11-22T02:42:27;12.63;;;6.53;;
81725;SDS011;71135;16.738;-14.648;2023-11-22T02:44:56;14.50;;;7.65;;
81725;SDS011;71135;16.738;-14.648;2023-11-22T02:47:25;13.75;;;7.35;;
81725;SDS011;71135;16.738;-14.648;2023-11-22T02:49:56;13.93;;;7.30;;
81725;SDS011;71135;16.738;-14.648;2023-11-22T02:52:25;13.30;;;7.18;;
81725;SDS011;71135;16.738;-14.648;2023-11-22T02:54:56;12.18;;;6.85;;
81725;SDS011;71135;16.738;-14.648;2023-11-22T02:57:26;11.38;;;6.88;;
81725;SDS011;71135;16.738;-14.648;2023-11-22T02:59:55;13.77;;;6.75;;
81725;SDS011;71135;16.738;-14.648;2023-11-22T03:02:24;13.75;;;7.22;;
81725;SDS011;71135;16.738;-14.648;2023-11-22T03:04:54;11.68;;;6.88;;
81725;SDS011;71135;16.738;-14.648;2023-11-22T03:07:23;12.85;;;6.43;;
81725;SDS011;71135;16.738;-14.648;2023-11-22T03:09:53;14.05;;;6.25;;
81725;SDS011;71135;16.738;-14.648;2023-11-22T03:12:28;11.25;;;6.75;;
81725;SDS011;71135;16.738;-14.648;2023-11-22T03:14:58;10.95;;;6.28;;
81725;SDS011;71135;16.738;-14.648;2023-11-22T03:17:27;13.88;;;8.07;;
81725;SDS011;71135;16.738;-14.648;2023-11-22T03:19:58;13.23;;;6.47;;
81725;SDS011;71135;16.738;-14.648;2023-11-22T03:22:28;13.25;;;6.45;;
81725;SDS011;71135;16.738;-14.648;2023-11-22T03:25:01;11.18;;;6.18;;
81725;SDS011;71135;16.738;-14.648;2023-11-22T03:27:33;13.70;;;7.22;;
81725;SDS011;71135;16.738;-14.648;2023-11-22T03:30:02;13.35;;;6.38;;
81725;SDS011;71135;16.738;-14.648;2023-11-22T03:32:37;14.00;;;6.68;;
81725;SDS011;71135;16.738;-14.648;2023-11-22T03:35:07;13.35;;;6.90;;
81725;SDS011;71135;16.738;-14.648;2023-11-22T03:37:37;14.05;;;6.45;;
81725;SDS011;71135;16.738;-14.648;2023-11-22T03:40:07;14.65;;;7.45;;
81725;SDS011;71135;16.738;-14.648;2023-11-22T03:42:41;15.45;;;6.93;;
81725;SDS011;71135;16.738;-14.648;2023-11-22T03:45:12;13.05;;;6.00;;
81725;SDS011;71135;16.738;-14.648;2023-11-22T03:47:42;11.75;;;6.72;;
81725;SDS011;71135;16.738;-14.648;2023-11-22T03:50:12;13.82;;;7.22;;
81725;SDS011;71135;16.738;-14.648;2023-11-22T03:52:41;13.13;;;6.70;;
81725;SDS011;71135;16.738;-14.648;2023-11-22T03:55:10;12.70;;;6.50;;
81725;SDS011;71135;16.738;-14.648;2023-11-22T03:57:44;11.35;;;6.40;;
81725;SDS011;71135;16.738;-14.648;2023-11-22T04:05:27;12.20;;;6.28;;
81725;SDS011;71135;16.738;-14.648;2023-11-22T04:07:57;13.70;;;6.70;;
81725;SDS011;71135;16.738;-14.648;2023-11-22T04:10:26;14.35;;;7.25;;
81725;SDS011;71135;16.738;-14.648;2023-11-22T04:12:58;13.05;;;7.07;;
81725;SDS011;71135;16.738;-14.648;2023-11-22T04:15:27;12.63;;;6.47;;
81725;SDS011;71135;16.738;-14.648;2023-11-22T04:17:57;13.75;;;6.88;;
81725;SDS011;71135;16.738;-14.648;2023-11-22T04:20:26;14.82;;;6.32;;
81725;SDS011;71135;16.738;-14.648;2023-11-22T04:22:55;13.25;;;5.80;;
81725;SDS011;71135;16.738;-14.648;2023-11-22T04:25:25;15.60;;;6.78;;
81725;SDS011;71135;16.738;-14.648;2023-11-22T04:27:54;10.43;;;5.75;;
81725;SDS011;71135;16.738;-14.648;2023-11-22T04:30:27;11.98;;;6.32;;
81725;SDS011;71135;16.738;-14.648;2023-11-22T04:32:57;12.23;;;6.93;;
81725;SDS011;71135;16.738;-14.648;2023-11-22T04:35:27;17.17;;;7.40;;
81725;SDS011;71135;16.738;-14.648;2023-11-22T04:37:59;12.95;;;5.72;;
81725;SDS011;71135;16.738;-14.648;2023-11-22T04:40:29;12.60;;;6.32;;
81725;SDS011;71135;16.738;-14.648;2023-11-22T04:42:59;13.00;;;6.07;;
81725;SDS011;71135;16.738;-14.648;2023-11-22T04:45:31;12.15;;;6.50;;
81725;SDS011;71135;16.738;-14.648;2023-11-22T04:48:00;12.13;;;6.00;;
81725;SDS011;71135;16.738;-14.648;2023-11-22T04:50:29;12.13;;;6.47;;
81725;SDS011;71135;16.738;-14.648;2023-11-22T04:52:58;13.52;;;6.25;;
81725;SDS011;71135;16.738;-14.648;2023-11-22T04:55:28;16.17;;;8.38;;
81725;SDS011;71135;16.738;-14.648;2023-11-22T04:57:58;15.93;;;7.55;;
81725;SDS011;71135;16.738;-14.648;2023-11-22T05:00:27;16.20;;;7.25;;
81725;SDS011;71135;16.738;-14.648;2023-11-22T05:02:59;15.52;;;8.25;;
81725;SDS011;71135;16.738;-14.648;2023-11-22T05:05:28;12.48;;;6.68;;
81725;SDS011;71135;16.738;-14.648;2023-11-22T05:07:57;15.80;;;7.75;;
81725;SDS011;71135;16.738;-14.648;2023-11-22T05:10:26;14.52;;;6.72;;
81725;SDS011;71135;16.738;-14.648;2023-11-22T05:12:55;14.40;;;6.72;;
81725;SDS011;71135;16.738;-14.648;2023-11-22T05:15:26;12.95;;;7.05;;
81725;SDS011;71135;16.738;-14.648;2023-11-22T05:17:55;14.00;;;7.00;;
81725;SDS011;71135;16.738;-14.648;2023-11-22T05:20:26;14.43;;;7.75;;
81725;SDS011;71135;16.738;-14.648;2023-11-22T05:22:56;15.65;;;7.63;;
81725;SDS011;71135;16.738;-14.648;2023-11-22T05:25:25;16.17;;;7.07;;
81725;SDS011;71135;16.738;-14.648;2023-11-22T05:27:54;18.85;;;7.40;;
81725;SDS011;71135;16.738;-14.648;2023-11-22T05:30:24;18.27;;;7.60;;
81725;SDS011;71135;16.738;-14.648;2023-11-22T05:32:53;16.20;;;8.68;;
81725;SDS011;71135;16.738;-14.648;2023-11-22T05:35:22;15.38;;;8.02;;
81725;SDS011;71135;16.738;-14.648;2023-11-22T05:37:54;15.38;;;7.60;;
81725;SDS011;71135;16.738;-14.648;2023-11-22T05:40:23;16.95;;;8.55;;
81725;SDS011;71135;16.738;-14.648;2023-11-22T05:42:52;16.67;;;7.55;;
81725;SDS011;71135;16.738;-14.648;2023-11-22T05:45:21;16.27;;;7.75;;
81725;SDS011;71135;16.738;-14.648;2023-11-22T05:47:51;15.93;;;7.70;;
81725;SDS011;71135;16.738;-14.648;2023-11-22T05:50:20;18.17;;;7.95;;
81725;SDS011;71135;16.738;-14.648;2023-11-22T05:52:50;16.70;;;7.63;;
81725;SDS011;71135;16.738;-14.648;2023-11-22T05:55:22;16.02;;;8.30;;
81725;SDS011;71135;16.738;-14.648;2023-11-22T05:57:51;18.33;;;8.45;;
81725;SDS011;71135;16.738;-14.648;2023-11-22T06:00:20;16.52;;;7.78;;
81725;SDS011;71135;16.738;-14.648;2023-11-22T06:02:49;15.32;;;7.97;;
81725;SDS011;71135;16.738;-14.648;2023-11-22T06:05:18;16.77;;;8.70;;
81725;SDS011;71135;16.738;-14.648;2023-11-22T06:07:47;18.30;;;8.10;;
81725;SDS011;71135;16.738;-14.648;2023-11-22T06:10:17;15.98;;;7.72;;
81725;SDS011;71135;16.738;-14.648;2023-11-22T06:12:49;17.35;;;7.75;;
81725;SDS011;71135;16.738;-14.648;2023-11-22T06:15:18;16.60;;;8.05;;
81725;SDS011;71135;16.738;-14.648;2023-11-22T06:17:48;18.58;;;8.02;;
81725;SDS011;71135;16.738;-14.648;2023-11-22T06:20:18;13.85;;;7.22;;
81725;SDS011;71135;16.738;-14.648;2023-11-22T06:22:47;17.95;;;8.80;;
81725;SDS011;71135;16.738;-14.648;2023-11-22T06:25:22;15.45;;;8.27;;
81725;SDS011;71135;16.738;-14.648;2023-11-22T06:28:05;17.00;;;7.68;;
81725;SDS011;71135;16.738;-14.648;2023-11-22T06:30:35;18.40;;;8.02;;
81725;SDS011;71135;16.738;-14.648;2023-11-22T06:33:04;16.02;;;7.80;;
81725;SDS011;71135;16.738;-14.648;2023-11-22T06:35:33;18.20;;;8.50;;
81725;SDS011;71135;16.738;-14.648;2023-11-22T06:38:03;20.33;;;9.05;;
81725;SDS011;71135;16.738;-14.648;2023-11-22T06:40:32;16.45;;;8.18;;
81725;SDS011;71135;16.738;-14.648;2023-11-22T06:43:01;16.00;;;8.00;;
81725;SDS011;71135;16.738;-14.648;2023-11-22T06:45:33;17.30;;;8.95;;
81725;SDS011;71135;16.738;-14.648;2023-11-22T06:48:03;18.05;;;9.00;;
81725;SDS011;71135;16.738;-14.648;2023-11-22T06:50:32;16.58;;;7.85;;
81725;SDS011;71135;16.738;-14.648;2023-11-22T06:53:01;20.08;;;8.38;;
81725;SDS011;71135;16.738;-14.648;2023-11-22T06:55:31;17.48;;;8.38;;
81725;SDS011;71135;16.738;-14.648;2023-11-22T06:58:01;16.20;;;8.15;;
81725;SDS011;71135;16.738;-14.648;2023-11-22T07:00:33;18.02;;;8.90;;
81725;SDS011;71135;16.738;-14.648;2023-11-22T07:03:02;13.32;;;7.28;;
81725;SDS011;71135;16.738;-14.648;2023-11-22T07:05:31;17.42;;;8.82;;
81725;SDS011;71135;16.738;-14.648;2023-11-22T07:08:01;18.67;;;9.02;;
81725;SDS011;71135;16.738;-14.648;2023-11-22T07:10:31;19.02;;;8.93;;
81725;SDS011;71135;16.738;-14.648;2023-11-22T07:13:00;15.35;;;8.18;;
81725;SDS011;71135;16.738;-14.648;2023-11-22T07:15:29;16.52;;;8.55;;
81725;SDS011;71135;16.738;-14.648;2023-11-22T07:18:01;27.27;;;10.02;;
81725;SDS011;71135;16.738;-14.648;2023-11-22T07:20:30;22.98;;;9.40;;
81725;SDS011;71135;16.738;-14.648;2023-11-22T07:23:00;18.45;;;8.20;;
81725;SDS011;71135;16.738;-14.648;2023-11-22T07:25:29;22.27;;;8.50;;
81725;SDS011;71135;16.738;-14.648;2023-11-22T07:27:59;17.80;;;8.88;;
81725;SDS011;71135;16.738;-14.648;2023-11-22T07:30:28;15.10;;;7.60;;
81725;SDS011;71135;16.738;-14.648;2023-11-22T07:33:02;18.08;;;8.90;;
81725;SDS011;71135;16.738;-14.648;2023-11-22T07:35:31;17.95;;;8.40;;
81725;SDS011;71135;16.738;-14.648;2023-11-22T07:38:01;16.48;;;8.45;;
81725;SDS011;71135;16.738;-14.648;2023-11-22T07:40:30;18.92;;;8.15;;
81725;SDS011;71135;16.738;-14.648;2023-11-22T07:43:00;16.50;;;8.75;;
81725;SDS011;71135;16.738;-14.648;2023-11-22T07:45:30;17.92;;;8.52;;
81725;SDS011;71135;16.738;-14.648;2023-11-22T07:48:02;18.08;;;8.40;;
81725;SDS011;71135;16.738;-14.648;2023-11-22T07:50:32;19.17;;;8.50;;
81725;SDS011;71135;16.738;-14.648;2023-11-22T07:53:01;17.63;;;8.80;;
81725;SDS011;71135;16.738;-14.648;2023-11-22T07:55:31;21.25;;;8.25;;
81725;SDS011;71135;16.738;-14.648;2023-11-22T07:58:03;19.42;;;8.57;;
81725;SDS011;71135;16.738;-14.648;2023-11-22T08:00:32;24.75;;;10.45;;
81725;SDS011;71135;16.738;-14.648;2023-11-22T08:03:05;20.85;;;10.02;;
81725;SDS011;71135;16.738;-14.648;2023-11-22T08:05:34;20.92;;;10.80;;
81725;SDS011;71135;16.738;-14.648;2023-11-22T08:08:06;19.58;;;10.18;;
81725;SDS011;71135;16.738;-14.648;2023-11-22T08:10:36;23.98;;;10.55;;
81725;SDS011;71135;16.738;-14.648;2023-11-22T08:13:06;20.02;;;9.30;;
81725;SDS011;71135;16.738;-14.648;2023-11-22T08:15:35;22.33;;;9.77;;
81725;SDS011;71135;16.738;-14.648;2023-11-22T08:18:07;20.73;;;10.00;;
81725;SDS011;71135;16.738;-14.648;2023-11-22T08:20:36;20.75;;;9.30;;
81725;SDS011;71135;16.738;-14.648;2023-11-22T08:23:06;18.77;;;8.82;;
81725;SDS011;71135;16.738;-14.648;2023-11-22T08:25:36;17.25;;;8.98;;
81725;SDS011;71135;16.738;-14.648;2023-11-22T08:28:05;20.25;;;9.88;;
81725;SDS011;71135;16.738;-14.648;2023-11-22T08:30:35;18.60;;;9.73;;
81725;SDS011;71135;16.738;-14.648;2023-11-22T08:33:09;21.67;;;10.20;;
81725;SDS011;71135;16.738;-14.648;2023-11-22T08:35:38;17.95;;;8.48;;
81725;SDS011;71135;16.738;-14.648;2023-11-22T08:38:08;20.75;;;9.85;;
81725;SDS011;71135;16.738;-14.648;2023-11-22T08:40:37;21.63;;;9.75;;
81725;SDS011;71135;16.738;-14.648;2023-11-22T08:43:06;20.08;;;8.90;;
81725;SDS011;71135;16.738;-14.648;2023-11-22T08:45:36;18.42;;;8.68;;
81725;SDS011;71135;16.738;-14.648;2023-11-22T08:48:05;20.38;;;8.93;;
81725;SDS011;71135;16.738;-14.648;2023-11-22T08:50:36;16.70;;;8.25;;
81725;SDS011;71135;16.738;-14.648;2023-11-22T08:53:05;17.83;;;9.35;;
81725;SDS011;71135;16.738;-14.648;2023-11-22T08:55:34;14.65;;;8.07;;
81725;SDS011;71135;16.738;-14.648;2023-11-22T08:58:03;19.75;;;8.70;;
81725;SDS011;71135;16.738;-14.648;2023-11-22T09:00:34;17.75;;;8.55;;
81725;SDS011;71135;16.738;-14.648;2023-11-22T09:03:03;21.75;;;10.02;;
81725;SDS011;71135;16.738;-14.648;2023-11-22T09:05:48;21.52;;;9.60;;
81725;SDS011;71135;16.738;-14.648;2023-11-22T09:08:28;18.45;;;8.45;;
81725;SDS011;71135;16.738;-14.648;2023-11-22T09:10:57;18.42;;;8.85;;
81725;SDS011;71135;16.738;-14.648;2023-11-22T09:13:26;19.55;;;8.85;;
81725;SDS011;71135;16.738;-14.648;2023-11-22T09:15:56;18.77;;;8.93;;
81725;SDS011;71135;16.738;-14.648;2023-11-22T09:18:25;18.50;;;9.23;;
81725;SDS011;71135;16.738;-14.648;2023-11-22T09:20:56;20.02;;;9.48;;
81725;SDS011;71135;16.738;-14.648;2023-11-22T09:23:25;21.33;;;9.48;;
81725;SDS011;71135;16.738;-14.648;2023-11-22T09:25:55;18.25;;;9.02;;
81725;SDS011;71135;16.738;-14.648;2023-11-22T09:28:26;19.73;;;8.63;;
81725;SDS011;71135;16.738;-14.648;2023-11-22T09:30:55;17.17;;;9.60;;
81725;SDS011;71135;16.738;-14.648;2023-11-22T09:33:31;18.80;;;9.15;;
81725;SDS011;71135;16.738;-14.648;2023-11-22T09:36:03;17.52;;;8.68;;
81725;SDS011;71135;16.738;-14.648;2023-11-22T09:38:33;19.77;;;9.05;;
81725;SDS011;71135;16.738;-14.648;2023-11-22T09:41:03;16.20;;;8.25;;
81725;SDS011;71135;16.738;-14.648;2023-11-22T09:43:33;16.55;;;8.88;;
81725;SDS011;71135;16.738;-14.648;2023-11-22T09:46:05;16.13;;;8.75;;
81725;SDS011;71135;16.738;-14.648;2023-11-22T09:48:37;18.65;;;9.07;;
81725;SDS011;71135;16.738;-14.648;2023-11-22T09:51:17;20.40;;;8.77;;
81725;SDS011;71135;16.738;-14.648;2023-11-22T09:53:52;17.73;;;9.50;;
81725;SDS011;71135;16.738;-14.648;2023-11-22T09:56:24;15.48;;;8.13;;
81725;SDS011;71135;16.738;-14.648;2023-11-22T09:58:57;16.13;;;8.75;;
81725;SDS011;71135;16.738;-14.648;2023-11-22T10:01:56;18.95;;;9.65;;
81725;SDS011;71135;16.738;-14.648;2023-11-22T10:04:26;18.75;;;9.23;;
81725;SDS011;71135;16.738;-14.648;2023-11-22T10:07:00;18.25;;;9.80;;
81725;SDS011;71135;16.738;-14.648;2023-11-22T10:09:29;19.23;;;9.45;;
81725;SDS011;71135;16.738;-14.648;2023-11-22T10:12:03;20.38;;;9.40;;
81725;SDS011;71135;16.738;-14.648;2023-11-22T10:14:33;18.25;;;9.18;;
81725;SDS011;71135;16.738;-14.648;2023-11-22T10:17:04;16.88;;;9.52;;
81725;SDS011;71135;16.738;-14.648;2023-11-22T10:19:34;20.45;;;10.02;;
81725;SDS011;71135;16.738;-14.648;2023-11-22T10:22:07;17.13;;;9.10;;
81725;SDS011;71135;16.738;-14.648;2023-11-22T10:24:41;18.67;;;9.50;;
81725;SDS011;71135;16.738;-14.648;2023-11-22T10:27:12;17.60;;;9.48;;
81725;SDS011;71135;16.738;-14.648;2023-11-22T10:29:42;18.52;;;10.05;;
81725;SDS011;71135;16.738;-14.648;2023-11-22T10:32:12;19.38;;;10.15;;
81725;SDS011;71135;16.738;-14.648;2023-11-22T10:34:41;21.85;;;10.57;;
81725;SDS011;71135;16.738;-14.648;2023-11-22T10:37:13;19.10;;;10.25;;
81725;SDS011;71135;16.738;-14.648;2023-11-22T10:39:43;18.98;;;9.95;;
81725;SDS011;71135;16.738;-14.648;2023-11-22T10:42:19;21.25;;;10.50;;
81725;SDS011;71135;16.738;-14.648;2023-11-22T10:44:49;17.58;;;9.88;;
81725;SDS011;71135;16.738;-14.648;2023-11-22T10:47:20;18.20;;;9.23;;
81725;SDS011;71135;16.738;-14.648;2023-11-22T10:49:49;19.92;;;10.27;;
81725;SDS011;71135;16.738;-14.648;2023-11-22T10:52:21;17.20;;;9.57;;
81725;SDS011;71135;16.738;-14.648;2023-11-22T10:54:55;18.60;;;10.57;;
81725;SDS011;71135;16.738;-14.648;2023-11-22T10:57:32;18.02;;;9.18;;
81725;SDS011;71135;16.738;-14.648;2023-11-22T11:00:08;18.17;;;8.68;;
81725;SDS011;71135;16.738;-14.648;2023-11-22T11:02:40;18.80;;;9.73;;
81725;SDS011;71135;16.738;-14.648;2023-11-22T11:05:15;18.63;;;9.70;;
81725;SDS011;71135;16.738;-14.648;2023-11-22T11:07:53;19.20;;;9.88;;
81725;SDS011;71135;16.738;-14.648;2023-11-22T11:10:32;18.70;;;9.13;;
81725;SDS011;71135;16.738;-14.648;2023-11-22T11:13:01;22.08;;;10.70;;
81725;SDS011;71135;16.738;-14.648;2023-11-22T11:15:31;17.13;;;9.38;;
81725;SDS011;71135;16.738;-14.648;2023-11-22T11:18:00;19.27;;;10.02;;
81725;SDS011;71135;16.738;-14.648;2023-11-22T11:20:32;18.45;;;9.45;;
81725;SDS011;71135;16.738;-14.648;2023-11-22T11:23:04;17.25;;;10.13;;
81725;SDS011;71135;16.738;-14.648;2023-11-22T11:25:33;19.17;;;11.73;;
81725;SDS011;71135;16.738;-14.648;2023-11-22T11:28:02;19.25;;;9.48;;
81725;SDS011;71135;16.738;-14.648;2023-11-22T11:30:44;18.45;;;11.00;;
81725;SDS011;71135;16.738;-14.648;2023-11-22T11:33:14;16.88;;;10.75;;
81725;SDS011;71135;16.738;-14.648;2023-11-22T11:35:46;17.55;;;9.38;;
81725;SDS011;71135;16.738;-14.648;2023-11-22T11:38:21;17.27;;;10.13;;
81725;SDS011;71135;16.738;-14.648;2023-11-22T11:40:55;19.90;;;11.43;;
81725;SDS011;71135;16.738;-14.648;2023-11-22T11:43:34;20.25;;;9.70;;
81725;SDS011;71135;16.738;-14.648;2023-11-22T11:46:08;18.50;;;9.88;;
81725;SDS011;71135;16.738;-14.648;2023-11-22T11:48:41;16.92;;;9.32;;
81725;SDS011;71135;16.738;-14.648;2023-11-22T11:51:13;18.40;;;10.27;;
81725;SDS011;71135;16.738;-14.648;2023-11-22T11:53:46;18.80;;;9.63;;
81725;SDS011;71135;16.738;-14.648;2023-11-22T11:56:16;18.02;;;9.50;;
81725;SDS011;71135;16.738;-14.648;2023-11-22T11:58:46;17.50;;;9.85;;
81725;SDS011;71135;16.738;-14.648;2023-11-22T12:01:18;18.73;;;9.77;;
81725;SDS011;71135;16.738;-14.648;2023-11-22T12:03:50;17.73;;;10.00;;
81725;SDS011;71135;16.738;-14.648;2023-11-22T12:06:28;17.17;;;9.77;;
81725;SDS011;71135;16.738;-14.648;2023-11-22T12:11:33;13.60;;;8.45;;
81725;SDS011;71135;16.738;-14.648;2023-11-22T12:14:03;17.05;;;9.57;;
81725;SDS011;71135;16.738;-14.648;2023-11-22T12:16:45;16.20;;;9.00;;
81725;SDS011;71135;16.738;-14.648;2023-11-22T12:19:21;17.13;;;8.88;;
81725;SDS011;71135;16.738;-14.648;2023-11-22T12:21:52;16.98;;;9.23;;
81725;SDS011;71135;16.738;-14.648;2023-11-22T12:24:24;17.25;;;8.75;;
81725;SDS011;71135;16.738;-14.648;2023-11-22T12:26:53;17.33;;;9.18;;
81725;SDS011;71135;16.738;-14.648;2023-11-22T12:29:24;14.82;;;8.45;;
81725;SDS011;71135;16.738;-14.648;2023-11-22T12:31:54;16.52;;;9.13;;
81725;SDS011;71135;16.738;-14.648;2023-11-22T12:34:23;14.75;;;8.05;;
81725;SDS011;71135;16.738;-14.648;2023-11-22T12:36:52;14.68;;;8.63;;
81725;SDS011;71135;16.738;-14.648;2023-11-22T12:39:24;17.92;;;9.35;;
81725;SDS011;71135;16.738;-14.648;2023-11-22T12:41:53;15.10;;;8.27;;
81725;SDS011;71135;16.738;-14.648;2023-11-22T12:44:23;16.42;;;8.90;;
81725;SDS011;71135;16.738;-14.648;2023-11-22T12:46:54;15.57;;;9.55;;
81725;SDS011;71135;16.738;-14.648;2023-11-22T12:49:24;16.08;;;8.40;;
81725;SDS011;71135;16.738;-14.648;2023-11-22T12:51:55;16.70;;;8.80;;
81725;SDS011;71135;16.738;-14.648;2023-11-22T12:54:27;14.68;;;8.95;;
81725;SDS011;71135;16.738;-14.648;2023-11-22T12:59:28;14.98;;;8.10;;
81725;SDS011;71135;16.738;-14.648;2023-11-22T13:01:58;15.65;;;8.15;;
81725;SDS011;71135;16.738;-14.648;2023-11-22T13:04:28;15.73;;;8.65;;
81725;SDS011;71135;16.738;-14.648;2023-11-22T13:06:57;14.52;;;8.55;;
81725;SDS011;71135;16.738;-14.648;2023-11-22T13:09:29;12.45;;;7.57;;
81725;SDS011;71135;16.738;-14.648;2023-11-22T13:11:59;16.35;;;9.07;;
81725;SDS011;71135;16.738;-14.648;2023-11-22T13:14:29;16.55;;;8.75;;
81725;SDS011;71135;16.738;-14.648;2023-11-22T13:17:03;15.13;;;8.85;;
81725;SDS011;71135;16.738;-14.648;2023-11-22T13:19:33;14.68;;;8.45;;
81725;SDS011;71135;16.738;-14.648;2023-11-22T13:22:05;14.55;;;8.60;;
81725;SDS011;71135;16.738;-14.648;2023-11-22T13:24:37;15.38;;;9.02;;
81725;SDS011;71135;16.738;-14.648;2023-11-22T13:27:09;16.55;;;9.00;;
81725;SDS011;71135;16.738;-14.648;2023-11-22T13:29:38;15.80;;;8.82;;
81725;SDS011;71135;16.738;-14.648;2023-11-22T13:32:09;15.40;;;9.43;;
81725;SDS011;71135;16.738;-14.648;2023-11-22T13:34:38;15.85;;;8.80;;
81725;SDS011;71135;16.738;-14.648;2023-11-22T13:37:08;16.50;;;9.05;;
81725;SDS011;71135;16.738;-14.648;2023-11-22T13:39:40;15.30;;;9.55;;
81725;SDS011;71135;16.738;-14.648;2023-11-22T13:42:09;15.30;;;9.13;;
81725;SDS011;71135;16.738;-14.648;2023-11-22T13:44:38;15.95;;;8.60;;
81725;SDS011;71135;16.738;-14.648;2023-11-22T13:47:07;17.15;;;8.98;;
81725;SDS011;71135;16.738;-14.648;2023-11-22T13:49:36;14.65;;;9.23;;
81725;SDS011;71135;16.738;-14.648;2023-11-22T13:52:05;16.15;;;9.88;;
81725;SDS011;71135;16.738;-14.648;2023-11-22T13:54:34;16.42;;;8.45;;
81725;SDS011;71135;16.738;-14.648;2023-11-22T13:57:07;15.90;;;9.15;;
81725;SDS011;71135;16.738;-14.648;2023-11-22T13:59:36;17.73;;;9.95;;
81725;SDS011;71135;16.738;-14.648;2023-11-22T14:02:06;14.95;;;8.52;;
81725;SDS011;71135;16.738;-14.648;2023-11-22T14:04:35;15.93;;;9.15;;
81725;SDS011;71135;16.738;-14.648;2023-11-22T14:07:05;16.65;;;8.95;;
81725;SDS011;71135;16.738;-14.648;2023-11-22T14:09:34;16.35;;;8.48;;
81725;SDS011;71135;16.738;-14.648;2023-11-22T14:12:07;16.20;;;9.57;;
81725;SDS011;71135;16.738;-14.648;2023-11-22T14:14:36;19.15;;;9.73;;
81725;SDS011;71135;16.738;-14.648;2023-11-22T14:17:05;16.80;;;9.57;;
81725;SDS011;71135;16.738;-14.648;2023-11-22T14:19:34;17.45;;;9.25;;
81725;SDS011;71135;16.738;-14.648;2023-11-22T14:22:03;17.73;;;9.90;;
81725;SDS011;71135;16.738;-14.648;2023-11-22T14:24:33;16.67;;;8.65;;
81725;SDS011;71135;16.738;-14.648;2023-11-22T14:27:07;18.30;;;9.13;;
81725;SDS011;71135;16.738;-14.648;2023-11-22T14:29:36;16.05;;;9.57;;
81725;SDS011;71135;16.738;-14.648;2023-11-22T14:32:06;19.08;;;9.80;;
81725;SDS011;71135;16.738;-14.648;2023-11-22T14:34:35;17.25;;;9.43;;
81725;SDS011;71135;16.738;-14.648;2023-11-22T14:37:05;18.38;;;9.57;;
81725;SDS011;71135;16.738;-14.648;2023-11-22T14:39:35;18.23;;;9.68;;
81725;SDS011;71135;16.738;-14.648;2023-11-22T14:42:04;16.98;;;9.65;;